Time;durP1;ratioP1;P1;durP2;ratioP2;P2;SDS_P1;SDS_P2;PMS_P1;PMS_P2;Temp;Humidity;BMP_temperature;BMP_pressure;BME280_temperature;BME280_humidity;BME280_pressure;Samples;Min_cycle;Max_cycle;Signal;HPM_P1;HPM_P2
2023/03/31 00:00:59;;;;;;;8.60;5.03;;;;;;;;;;4250503;28;20054;-61
2023/03/31 00:03:23;;;;;;;5.20;4.13;;;;;;;;;;4252244;28;20053;-61
2023/03/31 00:05:46;;;;;;;7.80;3.90;;;;;;;;;;4252490;28;20153;-61
2023/03/31 00:08:08;;;;;;;7.90;3.88;;;;;;;;;;4245688;28;20050;-61
2023/03/31 00:10:30;;;;;;;5.80;3.40;;;;;;;;;;4251199;28;20049;-61
2023/03/31 00:12:51;;;;;;;4.68;3.70;;;;;;;;;;4248125;28;20042;-61
2023/03/31 00:15:11;;;;;;;8.43;3.92;;;;;;;;;;4249996;28;20046;-61
2023/03/31 00:17:32;;;;;;;4.00;3.70;;;;;;;;;;4242728;28;20042;-61
2023/03/31 00:19:52;;;;;;;10.70;4.65;;;;;;;;;;4247303;28;20133;-61
2023/03/31 00:22:12;;;;;;;5.57;4.07;;;;;;;;;;4248121;28;20065;-61
2023/03/31 00:24:33;;;;;;;6.25;4.07;;;;;;;;;;4250883;28;20042;-61
2023/03/31 00:26:53;;;;;;;7.00;4.40;;;;;;;;;;4243843;28;20058;-61
2023/03/31 00:29:13;;;;;;;6.15;4.20;;;;;;;;;;4248579;28;20081;-61
2023/03/31 00:31:34;;;;;;;11.88;3.95;;;;;;;;;;4248491;28;20063;-61
2023/03/31 00:33:55;;;;;;;6.78;4.50;;;;;;;;;;4246661;28;20065;-62
2023/03/31 00:36:26;;;;;;;4.82;3.50;;;;;;;;;;4250022;28;20146;-61
2023/03/31 00:38:47;;;;;;;8.35;5.03;;;;;;;;;;4249812;28;20081;-61
2023/03/31 00:41:07;;;;;;;9.77;6.25;;;;;;;;;;4247478;28;20132;-61
2023/03/31 00:43:30;;;;;;;5.07;4.43;;;;;;;;;;4248106;28;20050;-61
2023/03/31 00:45:50;;;;;;;5.10;4.70;;;;;;;;;;4247492;28;20084;-61
2023/03/31 00:48:16;;;;;;;13.80;4.78;;;;;;;;;;4249315;28;20243;-61
2023/03/31 00:50:40;;;;;;;8.48;4.10;;;;;;;;;;4243361;28;20369;-61
2023/03/31 00:53:02;;;;;;;6.20;4.35;;;;;;;;;;4249894;28;20231;-61
2023/03/31 00:55:25;;;;;;;10.27;4.68;;;;;;;;;;4247373;28;20038;-61
2023/03/31 00:57:46;;;;;;;10.93;4.55;;;;;;;;;;4241887;28;20077;-61
2023/03/31 01:00:15;;;;;;;10.43;4.25;;;;;;;;;;4243739;28;20273;-61
2023/03/31 01:02:40;;;;;;;5.65;4.88;;;;;;;;;;4246008;28;20316;-61
2023/03/31 01:05:01;;;;;;;4.55;4.22;;;;;;;;;;4246093;28;20362;-61
2023/03/31 01:07:41;;;;;;;11.65;5.05;;;;;;;;;;4242940;28;20415;-61
2023/03/31 01:10:03;;;;;;;11.57;5.13;;;;;;;;;;4243712;28;20070;-61
2023/03/31 01:12:24;;;;;;;8.27;4.65;;;;;;;;;;4242727;28;20050;-61
2023/03/31 01:14:44;;;;;;;8.75;4.28;;;;;;;;;;4242507;28;20138;-61
2023/03/31 01:17:08;;;;;;;6.85;4.47;;;;;;;;;;4241646;28;20069;-61
2023/03/31 01:19:47;;;;;;;5.10;4.70;;;;;;;;;;4241205;28;20111;-61
2023/03/31 01:22:22;;;;;;;3.97;3.40;;;;;;;;;;4241849;28;20049;-61
2023/03/31 01:24:46;;;;;;;5.78;4.55;;;;;;;;;;4246319;28;20043;-61
2023/03/31 01:27:06;;;;;;;;;;;;;;;;;;4248745;28;20046;-61
2023/03/31 01:29:35;;;;;;;7.13;3.78;;;;;;;;;;4242226;28;20249;-61
2023/03/31 01:32:14;;;;;;;8.20;4.13;;;;;;;;;;4242021;28;20038;-61
2023/03/31 01:34:42;;;;;;;7.25;4.40;;;;;;;;;;4247688;28;20050;-61
2023/03/31 01:37:17;;;;;;;3.85;3.35;;;;;;;;;;4243981;28;20262;-61
2023/03/31 01:39:56;;;;;;;8.55;3.83;;;;;;;;;;4251277;28;20095;-61
2023/03/31 01:42:24;;;;;;;8.50;4.55;;;;;;;;;;4247667;28;20047;-61
2023/03/31 01:44:44;;;;;;;8.90;3.97;;;;;;;;;;4249418;28;20227;-61
2023/03/31 01:47:09;;;;;;;8.73;3.28;;;;;;;;;;4252487;28;20050;-61
2023/03/31 01:49:32;;;;;;;6.53;4.07;;;;;;;;;;4248170;28;20076;-61
2023/03/31 01:51:56;;;;;;;11.60;3.65;;;;;;;;;;4248699;28;20058;-61
2023/03/31 01:54:16;;;;;;;9.93;5.13;;;;;;;;;;4249961;28;20113;-61
2023/03/31 01:56:46;;;;;;;7.10;4.68;;;;;;;;;;4247339;28;20372;-61
2023/03/31 01:59:11;;;;;;;11.05;3.97;;;;;;;;;;4241395;28;20230;-61
2023/03/31 02:01:36;;;;;;;8.13;4.13;;;;;;;;;;4245526;28;20070;-61
2023/03/31 02:03:59;;;;;;;8.50;4.85;;;;;;;;;;4250007;28;20086;-61
2023/03/31 02:06:23;;;;;;;7.90;4.22;;;;;;;;;;4246500;28;20286;-61
2023/03/31 02:08:45;;;;;;;6.90;4.22;;;;;;;;;;4234180;28;20081;-61
2023/03/31 02:11:05;;;;;;;6.72;4.05;;;;;;;;;;4244634;28;20045;-61
2023/03/31 02:13:27;;;;;;;5.50;5.00;;;;;;;;;;4249260;28;20049;-61
2023/03/31 02:15:50;;;;;;;7.57;3.47;;;;;;;;;;4245600;28;20042;-61
2023/03/31 02:18:12;;;;;;;9.20;5.05;;;;;;;;;;4243676;28;20280;-61
2023/03/31 02:20:33;;;;;;;5.45;4.13;;;;;;;;;;4247612;28;20062;-61
2023/03/31 02:22:55;;;;;;;6.80;4.57;;;;;;;;;;4246926;28;20054;-61
2023/03/31 02:25:18;;;;;;;7.95;5.70;;;;;;;;;;4248564;28;20046;-61
2023/03/31 02:27:41;;;;;;;6.90;4.05;;;;;;;;;;4245532;28;20132;-61
2023/03/31 02:30:02;;;;;;;9.13;4.75;;;;;;;;;;4249074;28;20066;-61
2023/03/31 02:32:32;;;;;;;11.80;4.93;;;;;;;;;;4247462;28;20043;-61
2023/03/31 02:34:54;;;;;;;12.73;4.50;;;;;;;;;;4242422;28;20116;-61
2023/03/31 02:37:15;;;;;;;8.88;4.22;;;;;;;;;;4246765;28;20085;-61
2023/03/31 02:39:36;;;;;;;5.07;4.70;;;;;;;;;;4249824;28;20043;-61
2023/03/31 02:41:57;;;;;;;4.80;3.22;;;;;;;;;;4246357;28;20107;-61
2023/03/31 02:44:17;;;;;;;4.82;3.72;;;;;;;;;;4247956;27;20093;-61
2023/03/31 02:46:38;;;;;;;9.05;4.70;;;;;;;;;;4249011;28;20055;-61
2023/03/31 02:49:00;;;;;;;5.45;5.07;;;;;;;;;;4244889;28;20084;-61
2023/03/31 02:51:24;;;;;;;5.57;5.03;;;;;;;;;;4248490;28;20050;-61
2023/03/31 02:54:02;;;;;;;7.60;5.10;;;;;;;;;;4248203;28;20045;-61
2023/03/31 02:56:26;;;;;;;4.70;3.88;;;;;;;;;;4247802;28;20378;-61
2023/03/31 02:58:49;;;;;;;8.93;4.85;;;;;;;;;;4246123;28;20043;-61
2023/03/31 03:01:30;;;;;;;5.50;3.63;;;;;;;;;;4243667;28;20096;-61
2023/03/31 03:04:00;;;;;;;8.60;4.80;;;;;;;;;;4246879;28;20100;-61
2023/03/31 03:06:36;;;;;;;9.15;4.32;;;;;;;;;;4243092;28;20115;-61
2023/03/31 03:09:15;;;;;;;14.77;5.80;;;;;;;;;;4243725;28;20054;-61
2023/03/31 03:11:56;;;;;;;7.47;4.45;;;;;;;;;;4245573;28;20070;-61
2023/03/31 03:14:35;;;;;;;10.75;5.03;;;;;;;;;;4243513;28;20208;-61
2023/03/31 03:17:16;;;;;;;4.32;4.03;;;;;;;;;;4244175;28;20046;-61
2023/03/31 03:19:36;;;;;;;5.00;4.55;;;;;;;;;;4241999;28;20041;-61
2023/03/31 03:21:57;;;;;;;7.47;4.57;;;;;;;;;;4249665;28;20081;-61
2023/03/31 03:24:17;;;;;;;7.70;5.55;;;;;;;;;;4243928;28;20046;-61
2023/03/31 03:26:39;;;;;;;4.68;4.05;;;;;;;;;;4248400;28;20374;-61
2023/03/31 03:28:59;;;;;;;5.78;3.60;;;;;;;;;;4246784;28;20396;-61
2023/03/31 03:31:19;;;;;;;3.97;3.60;;;;;;;;;;4248212;28;20042;-61
2023/03/31 03:33:40;;;;;;;6.20;4.40;;;;;;;;;;4254850;28;20080;-61
2023/03/31 03:36:00;;;;;;;4.68;3.47;;;;;;;;;;4249774;27;20054;-61
2023/03/31 03:38:21;;;;;;;3.80;3.45;;;;;;;;;;4244520;28;20400;-61
2023/03/31 03:40:41;;;;;;;6.28;4.93;;;;;;;;;;4251256;28;20043;-61
2023/03/31 03:43:01;;;;;;;6.20;4.78;;;;;;;;;;4245099;28;20061;-61
2023/03/31 03:45:21;;;;;;;13.02;4.50;;;;;;;;;;4250902;28;20069;-61
2023/03/31 03:47:41;;;;;;;7.72;3.80;;;;;;;;;;4246261;28;20051;-61
2023/03/31 03:50:01;;;;;;;7.07;3.75;;;;;;;;;;4251424;28;20058;-61
2023/03/31 03:52:22;;;;;;;8.85;5.30;;;;;;;;;;4249944;28;20045;-61
2023/03/31 03:54:42;;;;;;;8.25;5.20;;;;;;;;;;4250712;28;20051;-61
2023/03/31 03:57:02;;;;;;;5.35;4.82;;;;;;;;;;4246827;28;20354;-61
2023/03/31 03:59:22;;;;;;;10.40;4.35;;;;;;;;;;4243372;28;20038;-61
2023/03/31 04:01:42;;;;;;;10.00;4.47;;;;;;;;;;4252637;28;20054;-61
2023/03/31 04:04:03;;;;;;;10.40;5.78;;;;;;;;;;4247584;28;20369;-60
2023/03/31 04:06:24;;;;;;;6.25;5.30;;;;;;;;;;4249378;28;20369;-60
2023/03/31 04:08:44;;;;;;;6.30;4.75;;;;;;;;;;4246769;28;20050;-60
2023/03/31 04:11:10;;;;;;;9.15;3.83;;;;;;;;;;4253973;28;20127;-61
2023/03/31 04:13:30;;;;;;;5.10;4.63;;;;;;;;;;4252391;28;20033;-61
2023/03/31 04:15:50;;;;;;;9.82;4.22;;;;;;;;;;4246489;28;20050;-61
2023/03/31 04:18:17;;;;;;;8.63;4.13;;;;;;;;;;4251170;28;20046;-61
2023/03/31 04:20:37;;;;;;;8.50;4.28;;;;;;;;;;4237500;28;20118;-61
2023/03/31 04:22:57;;;;;;;4.97;4.47;;;;;;;;;;4247077;28;20088;-61
2023/03/31 04:25:18;;;;;;;10.85;4.70;;;;;;;;;;4247928;28;20242;-61
2023/03/31 04:27:45;;;;;;;5.47;4.90;;;;;;;;;;4246511;28;20046;-61
2023/03/31 04:30:07;;;;;;;9.20;6.57;;;;;;;;;;4243244;28;20054;-61
2023/03/31 04:32:31;;;;;;;10.43;5.68;;;;;;;;;;4247721;27;20094;-60
2023/03/31 04:35:01;;;;;;;8.48;4.35;;;;;;;;;;4246129;28;20093;-61
2023/03/31 04:37:21;;;;;;;12.05;6.03;;;;;;;;;;4247155;27;20140;-61
2023/03/31 04:39:45;;;;;;;6.85;5.38;;;;;;;;;;4243809;28;20080;-61
2023/03/31 04:42:05;;;;;;;7.13;4.75;;;;;;;;;;4248825;28;20086;-61
2023/03/31 04:44:26;;;;;;;5.28;4.25;;;;;;;;;;4247352;28;20046;-61
2023/03/31 04:46:46;;;;;;;7.15;4.72;;;;;;;;;;4247767;28;20046;-61
2023/03/31 04:49:06;;;;;;;8.57;4.28;;;;;;;;;;4252973;28;20076;-61
2023/03/31 04:51:26;;;;;;;5.80;4.75;;;;;;;;;;4249253;28;20231;-61
2023/03/31 04:53:47;;;;;;;5.18;4.78;;;;;;;;;;4246597;28;20075;-61
2023/03/31 04:56:07;;;;;;;6.63;5.05;;;;;;;;;;4247585;28;20050;-61
2023/03/31 04:58:28;;;;;;;4.28;3.97;;;;;;;;;;4245723;28;20050;-61
2023/03/31 05:00:49;;;;;;;7.63;5.40;;;;;;;;;;4248270;28;20370;-61
2023/03/31 05:03:09;;;;;;;8.00;5.40;;;;;;;;;;4245848;28;20047;-61
2023/03/31 05:05:29;;;;;;;4.82;4.25;;;;;;;;;;4248816;28;20061;-61
2023/03/31 05:07:49;;;;;;;5.65;4.13;;;;;;;;;;4248918;28;20088;-61
2023/03/31 05:10:10;;;;;;;5.97;4.22;;;;;;;;;;4243197;28;20046;-61
2023/03/31 05:12:33;;;;;;;5.20;4.85;;;;;;;;;;4244721;28;20366;-61
2023/03/31 05:14:54;;;;;;;6.82;6.15;;;;;;;;;;4246601;28;20152;-61
2023/03/31 05:17:16;;;;;;;6.88;4.72;;;;;;;;;;4245169;28;20046;-61
2023/03/31 05:19:36;;;;;;;14.65;5.97;;;;;;;;;;4245202;28;20074;-61
2023/03/31 05:21:57;;;;;;;11.30;5.57;;;;;;;;;;4245271;28;20066;-60
2023/03/31 05:24:17;;;;;;;14.23;6.43;;;;;;;;;;4244097;28;20085;-60
2023/03/31 05:26:38;;;;;;;11.07;5.45;;;;;;;;;;4242139;28;20046;-60
2023/03/31 05:28:58;;;;;;;7.55;5.97;;;;;;;;;;4242678;28;20053;-60
2023/03/31 05:31:19;;;;;;;12.52;5.55;;;;;;;;;;4233628;28;20067;-60
2023/03/31 05:33:40;;;;;;;5.70;4.40;;;;;;;;;;4241541;28;20272;-60
2023/03/31 05:36:00;;;;;;;8.85;4.82;;;;;;;;;;4241083;28;20057;-60
2023/03/31 05:38:21;;;;;;;7.35;4.63;;;;;;;;;;4240890;28;20081;-60
2023/03/31 05:40:41;;;;;;;14.23;4.25;;;;;;;;;;4252023;28;20050;-60
2023/03/31 05:43:01;;;;;;;4.05;3.92;;;;;;;;;;4240070;28;20391;-60
2023/03/31 05:45:22;;;;;;;5.47;3.85;;;;;;;;;;4245718;28;20046;-60
2023/03/31 05:47:42;;;;;;;10.73;6.05;;;;;;;;;;4251587;28;20357;-60
2023/03/31 05:50:06;;;;;;;7.65;4.82;;;;;;;;;;4225788;28;20058;-61
2023/03/31 05:52:26;;;;;;;5.80;4.78;;;;;;;;;;4252186;28;20047;-60
2023/03/31 05:54:46;;;;;;;7.25;5.35;;;;;;;;;;4252750;28;20053;-60
2023/03/31 05:57:07;;;;;;;5.70;4.88;;;;;;;;;;4251873;28;20134;-60
2023/03/31 05:59:27;;;;;;;8.38;4.85;;;;;;;;;;4244845;28;20427;-60
2023/03/31 06:01:47;;;;;;;6.75;5.68;;;;;;;;;;4245635;28;20046;-60
2023/03/31 06:04:08;;;;;;;8.95;4.53;;;;;;;;;;4240401;28;20038;-60
2023/03/31 06:06:28;;;;;;;8.95;5.82;;;;;;;;;;4251728;28;20050;-60
2023/03/31 06:08:49;;;;;;;9.23;5.35;;;;;;;;;;4242899;28;20407;-60
2023/03/31 06:11:10;;;;;;;5.85;5.15;;;;;;;;;;4245766;28;20395;-61
2023/03/31 06:13:30;;;;;;;7.18;5.53;;;;;;;;;;4247659;28;20111;-60
2023/03/31 06:15:57;;;;;;;6.63;4.93;;;;;;;;;;4249189;28;20117;-60
2023/03/31 06:18:17;;;;;;;7.95;5.47;;;;;;;;;;4243971;28;20358;-60
2023/03/31 06:20:38;;;;;;;10.75;6.65;;;;;;;;;;4245926;28;20108;-60
2023/03/31 06:22:58;;;;;;;4.70;4.30;;;;;;;;;;4245149;28;20291;-61
2023/03/31 06:25:18;;;;;;;12.43;6.75;;;;;;;;;;4246037;28;20038;-60
2023/03/31 06:27:38;;;;;;;9.48;5.00;;;;;;;;;;4250306;28;20456;-60
2023/03/31 06:29:58;;;;;;;7.97;6.13;;;;;;;;;;4245217;28;20125;-60
2023/03/31 06:32:18;;;;;;;7.57;5.65;;;;;;;;;;4246786;28;20058;-60
2023/03/31 06:34:38;;;;;;;12.15;6.25;;;;;;;;;;4246561;28;20038;-60
2023/03/31 06:36:59;;;;;;;7.38;6.68;;;;;;;;;;4248947;28;20234;-60
2023/03/31 06:39:19;;;;;;;14.73;6.30;;;;;;;;;;4245386;28;20239;-60
2023/03/31 06:41:39;;;;;;;12.20;7.07;;;;;;;;;;4243036;28;20366;-60
2023/03/31 06:44:00;;;;;;;5.57;5.03;;;;;;;;;;4247738;28;20080;-61
2023/03/31 06:46:20;;;;;;;7.35;5.93;;;;;;;;;;4245452;28;20066;-60
2023/03/31 06:48:40;;;;;;;13.70;6.70;;;;;;;;;;4242590;28;20039;-60
2023/03/31 06:51:02;;;;;;;11.82;6.57;;;;;;;;;;4241403;28;20042;-60
2023/03/31 06:53:22;;;;;;;14.85;6.82;;;;;;;;;;4251238;28;20050;-60
2023/03/31 06:55:42;;;;;;;8.02;5.95;;;;;;;;;;4248097;28;20054;-60
2023/03/31 06:58:02;;;;;;;8.82;5.72;;;;;;;;;;4246850;28;20054;-60
2023/03/31 07:00:24;;;;;;;8.55;7.00;;;;;;;;;;4244580;28;20231;-61
2023/03/31 07:02:45;;;;;;;9.73;6.78;;;;;;;;;;4248887;28;20043;-60
2023/03/31 07:05:05;;;;;;;7.28;6.63;;;;;;;;;;4248747;28;20047;-60
2023/03/31 07:07:25;;;;;;;10.60;5.25;;;;;;;;;;4248159;28;20449;-60
2023/03/31 07:09:45;;;;;;;6.05;5.65;;;;;;;;;;4247756;28;20061;-60
2023/03/31 07:12:05;;;;;;;7.35;5.38;;;;;;;;;;4248521;28;20046;-60
2023/03/31 07:14:26;;;;;;;6.30;5.78;;;;;;;;;;4250103;28;20261;-60
2023/03/31 07:16:46;;;;;;;6.15;5.03;;;;;;;;;;4248091;28;20051;-60
2023/03/31 07:19:06;;;;;;;11.52;8.02;;;;;;;;;;4247071;28;20042;-60
2023/03/31 07:21:26;;;;;;;6.03;5.47;;;;;;;;;;4248846;28;20272;-61
2023/03/31 07:23:47;;;;;;;10.63;7.38;;;;;;;;;;4251440;28;20043;-60
2023/03/31 07:26:07;;;;;;;6.75;6.07;;;;;;;;;;4246287;28;20046;-61
2023/03/31 07:28:28;;;;;;;11.38;6.50;;;;;;;;;;4245252;28;20051;-60
2023/03/31 07:30:48;;;;;;;7.95;7.20;;;;;;;;;;4247103;28;20276;-60
2023/03/31 07:33:09;;;;;;;10.07;6.20;;;;;;;;;;4246707;28;20379;-60
2023/03/31 07:35:29;;;;;;;10.25;7.45;;;;;;;;;;4245161;28;20054;-60
2023/03/31 07:37:51;;;;;;;7.82;6.95;;;;;;;;;;4247114;28;20361;-60
2023/03/31 07:40:16;;;;;;;8.40;6.15;;;;;;;;;;4246854;28;20112;-60
2023/03/31 07:42:36;;;;;;;7.55;7.05;;;;;;;;;;4246053;28;20065;-60
2023/03/31 07:44:57;;;;;;;8.40;6.55;;;;;;;;;;4246690;28;20074;-60
2023/03/31 07:47:17;;;;;;;8.95;7.72;;;;;;;;;;4250169;28;20238;-60
2023/03/31 07:49:37;;;;;;;8.75;5.70;;;;;;;;;;4246011;28;20073;-60
2023/03/31 07:51:58;;;;;;;7.78;7.15;;;;;;;;;;4253094;28;20378;-60
2023/03/31 07:54:18;;;;;;;8.93;6.45;;;;;;;;;;4246504;28;20042;-60
2023/03/31 07:56:38;;;;;;;12.88;5.80;;;;;;;;;;4252318;28;20058;-60
2023/03/31 07:58:58;;;;;;;9.60;7.35;;;;;;;;;;4245712;28;20089;-60
2023/03/31 08:01:20;;;;;;;7.50;6.43;;;;;;;;;;4243923;28;20076;-61
2023/03/31 08:03:40;;;;;;;6.22;5.70;;;;;;;;;;4246629;28;20388;-60
2023/03/31 08:06:01;;;;;;;7.35;5.07;;;;;;;;;;4244791;28;20049;-59
2023/03/31 08:08:21;;;;;;;7.85;6.70;;;;;;;;;;4248052;28;20285;-60
2023/03/31 08:10:41;;;;;;;11.98;6.63;;;;;;;;;;4247025;28;20369;-60
2023/03/31 08:13:01;;;;;;;7.00;6.20;;;;;;;;;;4245875;28;20038;-60
2023/03/31 08:15:21;;;;;;;7.78;5.80;;;;;;;;;;4254238;28;20079;-60
2023/03/31 08:17:42;;;;;;;6.97;5.75;;;;;;;;;;4251888;28;20098;-61
2023/03/31 08:20:05;;;;;;;9.40;6.75;;;;;;;;;;4248439;28;20038;-60
2023/03/31 08:22:28;;;;;;;18.88;7.43;;;;;;;;;;4246806;28;20114;-60
2023/03/31 08:24:48;;;;;;;9.75;6.47;;;;;;;;;;4244499;28;20268;-60
2023/03/31 08:27:08;;;;;;;8.43;6.03;;;;;;;;;;4247265;28;20051;-61
2023/03/31 08:29:31;;;;;;;9.70;6.70;;;;;;;;;;4247463;28;20073;-60
2023/03/31 08:31:53;;;;;;;11.55;5.95;;;;;;;;;;4246112;28;20060;-60
2023/03/31 08:34:13;;;;;;;7.72;5.80;;;;;;;;;;4245788;28;20073;-60
2023/03/31 08:36:35;;;;;;;9.73;6.30;;;;;;;;;;4250699;28;20046;-60
2023/03/31 08:38:55;;;;;;;13.07;6.18;;;;;;;;;;4248700;28;20065;-60
2023/03/31 08:41:18;;;;;;;12.35;6.63;;;;;;;;;;4246337;28;20081;-60
2023/03/31 08:43:38;;;;;;;;;;;;;;;;;;4246356;28;20034;-60
2023/03/31 08:45:59;;;;;;;14.00;7.30;;;;;;;;;;4248127;28;19921;-60
2023/03/31 08:48:24;;;;;;;9.25;7.53;;;;;;;;;;4250413;28;20111;-60
2023/03/31 08:50:47;;;;;;;10.98;7.75;;;;;;;;;;4245608;28;20051;-60
2023/03/31 08:53:11;;;;;;;6.80;6.22;;;;;;;;;;4252365;28;20074;-60
2023/03/31 08:55:40;;;;;;;8.60;7.50;;;;;;;;;;4246440;28;20072;-60
2023/03/31 08:58:00;;;;;;;9.05;7.05;;;;;;;;;;4248379;28;20043;-60
2023/03/31 09:00:20;;;;;;;9.85;7.55;;;;;;;;;;4243824;28;20049;-61
2023/03/31 09:03:13;;;;;;;10.50;6.43;;;;;;;;;;4246076;28;20080;-60
2023/03/31 09:05:34;;;;;;;9.10;7.97;;;;;;;;;;4221257;28;20289;-60
2023/03/31 09:08:01;;;;;;;14.00;7.43;;;;;;;;;;4234316;28;20082;-61
2023/03/31 09:10:32;;;;;;;15.98;8.70;;;;;;;;;;4249578;28;20090;-60
2023/03/31 09:13:12;;;;;;;7.65;6.70;;;;;;;;;;4244235;28;20042;-60
2023/03/31 09:15:39;;;;;;;13.65;7.07;;;;;;;;;;4242530;28;20046;-60
2023/03/31 09:18:06;;;;;;;9.93;8.07;;;;;;;;;;4249431;28;20042;-60
2023/03/31 09:20:32;;;;;;;8.70;7.32;;;;;;;;;;4244258;28;20046;-59
2023/03/31 09:22:55;;;;;;;8.25;7.35;;;;;;;;;;4246260;28;20068;-60
2023/03/31 09:25:19;;;;;;;8.77;8.00;;;;;;;;;;4246791;28;20066;-60
2023/03/31 09:27:41;;;;;;;17.13;8.93;;;;;;;;;;4245110;28;20034;-60
2023/03/31 09:30:20;;;;;;;7.60;6.78;;;;;;;;;;4246174;28;20377;-60
2023/03/31 09:32:41;;;;;;;9.05;8.18;;;;;;;;;;4244628;28;20050;-60
2023/03/31 09:35:11;;;;;;;8.30;7.47;;;;;;;;;;4247096;28;20104;-60
2023/03/31 09:37:32;;;;;;;13.55;7.55;;;;;;;;;;4243766;28;20038;-60
2023/03/31 09:39:52;;;;;;;8.50;7.70;;;;;;;;;;4244088;28;20090;-60
2023/03/31 09:42:13;;;;;;;8.93;7.88;;;;;;;;;;4243082;28;20085;-60
2023/03/31 09:44:38;;;;;;;10.85;7.70;;;;;;;;;;4239993;28;20050;-60
2023/03/31 09:46:59;;;;;;;11.52;7.43;;;;;;;;;;4250971;28;20050;-60
2023/03/31 09:49:21;;;;;;;14.18;10.45;;;;;;;;;;4241824;28;20069;-60
2023/03/31 09:51:44;;;;;;;10.43;7.10;;;;;;;;;;4241713;28;20117;-60
2023/03/31 09:54:23;;;;;;;10.85;7.65;;;;;;;;;;4253395;28;20045;-60
2023/03/31 09:56:51;;;;;;;9.25;8.43;;;;;;;;;;4242777;28;20085;-61
2023/03/31 09:59:16;;;;;;;9.95;7.00;;;;;;;;;;4240987;28;20110;-60
2023/03/31 10:01:36;;;;;;;16.13;10.40;;;;;;;;;;4244525;28;20069;-60
2023/03/31 10:03:57;;;;;;;17.88;9.60;;;;;;;;;;4242246;28;20153;-60
2023/03/31 10:06:18;;;;;;;10.43;8.73;;;;;;;;;;4242985;28;20050;-61
2023/03/31 10:08:39;;;;;;;12.73;8.93;;;;;;;;;;4252517;28;20261;-60
2023/03/31 10:11:02;;;;;;;10.95;7.80;;;;;;;;;;4241849;28;20051;-60
2023/03/31 10:13:22;;;;;;;;;;;;;;;;;;4246419;28;20046;-60
2023/03/31 10:15:42;;;;;;;8.93;6.65;;;;;;;;;;4245227;28;19922;-60
2023/03/31 10:18:03;;;;;;;16.08;8.77;;;;;;;;;;4243405;28;20274;-60
2023/03/31 10:20:36;;;;;;;9.57;7.93;;;;;;;;;;4242598;28;20105;-60
2023/03/31 10:23:01;;;;;;;13.25;6.75;;;;;;;;;;4247286;28;20061;-60
2023/03/31 10:25:24;;;;;;;10.40;9.18;;;;;;;;;;4247749;28;20039;-60
2023/03/31 10:27:44;;;;;;;;;;;;;;;;;;4245553;28;20080;-60
2023/03/31 10:30:09;;;;;;;14.07;8.18;;;;;;;;;;4251090;28;20013;-60
2023/03/31 10:32:40;;;;;;;6.07;5.55;;;;;;;;;;4246716;28;20035;-60
2023/03/31 10:35:23;;;;;;;8.32;7.47;;;;;;;;;;4243737;28;20038;-60
2023/03/31 10:37:43;;;;;;;7.57;6.95;;;;;;;;;;4238714;28;20325;-60
2023/03/31 10:40:05;;;;;;;13.77;8.23;;;;;;;;;;4251010;28;20076;-60
2023/03/31 10:42:27;;;;;;;11.30;6.72;;;;;;;;;;4242754;28;20361;-61
2023/03/31 10:44:47;;;;;;;8.02;6.55;;;;;;;;;;4243880;28;20092;-60
2023/03/31 10:47:14;;;;;;;7.18;6.22;;;;;;;;;;4247302;28;20357;-59
2023/03/31 10:49:38;;;;;;;7.28;5.35;;;;;;;;;;4242792;28;20047;-60
2023/03/31 10:52:02;;;;;;;6.13;5.63;;;;;;;;;;4243749;28;20051;-60
2023/03/31 10:54:24;;;;;;;8.40;5.70;;;;;;;;;;4242368;28;20035;-60
2023/03/31 10:56:49;;;;;;;6.65;5.70;;;;;;;;;;4249168;28;20110;-60
2023/03/31 10:59:13;;;;;;;7.53;6.53;;;;;;;;;;4246511;28;20077;-60
2023/03/31 11:01:33;;;;;;;7.30;6.45;;;;;;;;;;4241902;28;20051;-61
2023/03/31 11:03:53;;;;;;;12.63;5.97;;;;;;;;;;4243580;28;20046;-60
2023/03/31 11:06:18;;;;;;;8.75;7.10;;;;;;;;;;4247900;28;20059;-60
2023/03/31 11:08:48;;;;;;;6.43;5.82;;;;;;;;;;4247193;28;20038;-61
2023/03/31 11:11:08;;;;;;;9.55;6.75;;;;;;;;;;4247872;28;20237;-60
2023/03/31 11:13:48;;;;;;;13.75;5.50;;;;;;;;;;4246302;28;20065;-60
2023/03/31 11:16:07;;;;;;;16.05;7.60;;;;;;;;;;4246199;28;20046;-60
2023/03/31 11:18:34;;;;;;;7.75;5.78;;;;;;;;;;4245831;28;20085;-60
2023/03/31 11:21:09;;;;;;;6.70;5.68;;;;;;;;;;4247389;28;20104;-60
2023/03/31 11:23:48;;;;;;;8.32;6.43;;;;;;;;;;4247585;28;20094;-60
2023/03/31 11:26:38;;;;;;;10.27;5.55;;;;;;;;;;4249088;28;20041;-60
2023/03/31 11:29:16;;;;;;;8.32;5.60;;;;;;;;;;4178722;28;20253;-60
2023/03/31 11:31:56;;;;;;;10.02;5.80;;;;;;;;;;4243738;28;20043;-60
2023/03/31 11:34:20;;;;;;;11.43;5.95;;;;;;;;;;4246638;28;20061;-60
2023/03/31 11:36:58;;;;;;;11.45;6.95;;;;;;;;;;4245980;27;20058;-60
2023/03/31 11:39:19;;;;;;;10.52;6.38;;;;;;;;;;4242271;28;20043;-61
2023/03/31 11:41:42;;;;;;;8.77;6.72;;;;;;;;;;4247648;28;20077;-58
2023/03/31 11:44:04;;;;;;;15.02;6.82;;;;;;;;;;4245640;28;20076;-58
2023/03/31 11:46:24;;;;;;;7.90;6.53;;;;;;;;;;4249110;28;20098;-59
2023/03/31 11:48:56;;;;;;;13.15;5.40;;;;;;;;;;4245060;28;20073;-58
2023/03/31 11:51:19;;;;;;;6.88;6.30;;;;;;;;;;4250096;28;20038;-57
2023/03/31 11:53:40;;;;;;;9.65;6.22;;;;;;;;;;4243773;28;20053;-58
2023/03/31 11:56:03;;;;;;;9.43;8.05;;;;;;;;;;4246294;28;20091;-57
2023/03/31 11:58:37;;;;;;;14.05;7.63;;;;;;;;;;4244474;28;20056;-58
2023/03/31 12:01:00;;;;;;;10.18;6.03;;;;;;;;;;4250453;28;20092;-58
2023/03/31 12:03:35;;;;;;;8.90;7.05;;;;;;;;;;4243726;28;20088;-57
2023/03/31 12:05:58;;;;;;;13.65;7.90;;;;;;;;;;4243510;28;20291;-57
2023/03/31 12:08:24;;;;;;;7.95;7.25;;;;;;;;;;4243374;28;20050;-57
2023/03/31 12:10:48;;;;;;;13.30;7.93;;;;;;;;;;4249435;28;20050;-57
2023/03/31 12:13:26;;;;;;;14.02;8.50;;;;;;;;;;4247099;28;20038;-57
2023/03/31 12:15:54;;;;;;;8.63;6.38;;;;;;;;;;4246175;28;20054;-57
2023/03/31 12:18:20;;;;;;;11.60;6.10;;;;;;;;;;4248618;28;20050;-58
2023/03/31 12:20:42;;;;;;;8.68;5.38;;;;;;;;;;4249363;28;20046;-58
2023/03/31 12:23:03;;;;;;;10.80;6.20;;;;;;;;;;4250573;28;20065;-58
2023/03/31 12:25:27;;;;;;;9.02;5.70;;;;;;;;;;4251236;28;20575;-58
2023/03/31 12:27:50;;;;;;;10.38;6.43;;;;;;;;;;4232962;28;20115;-58
2023/03/31 12:30:12;;;;;;;13.30;7.38;;;;;;;;;;4250439;28;20065;-58
2023/03/31 12:32:36;;;;;;;8.27;5.93;;;;;;;;;;4249764;28;20093;-57
2023/03/31 12:35:01;;;;;;;5.68;5.18;;;;;;;;;;4246531;28;20050;-57
2023/03/31 12:37:32;;;;;;;7.72;5.93;;;;;;;;;;4248740;28;20080;-57
2023/03/31 12:40:00;;;;;;;6.35;4.97;;;;;;;;;;4249387;28;20384;-57
2023/03/31 12:42:20;;;;;;;9.25;6.32;;;;;;;;;;4246934;28;20374;-58
2023/03/31 12:45:01;;;;;;;11.43;5.72;;;;;;;;;;4250075;28;20047;-56
2023/03/31 12:47:24;;;;;;;5.50;5.05;;;;;;;;;;4247697;28;20270;-57
2023/03/31 12:49:50;;;;;;;6.25;5.00;;;;;;;;;;4250905;28;20304;-57
2023/03/31 12:52:21;;;;;;;7.65;4.75;;;;;;;;;;4254247;28;20288;-56
2023/03/31 12:54:44;;;;;;;11.27;4.50;;;;;;;;;;4246579;28;20041;-57
2023/03/31 12:57:12;;;;;;;7.13;4.45;;;;;;;;;;4249987;28;20230;-56
2023/03/31 12:59:32;;;;;;;8.07;4.68;;;;;;;;;;4250533;28;20364;-56
2023/03/31 13:02:15;;;;;;;9.20;5.60;;;;;;;;;;4250609;28;20369;-57
2023/03/31 13:04:36;;;;;;;6.93;6.28;;;;;;;;;;4247565;28;20050;-57
2023/03/31 13:06:58;;;;;;;11.13;5.68;;;;;;;;;;4249962;28;20046;-56
2023/03/31 13:09:18;;;;;;;8.77;5.68;;;;;;;;;;4247692;28;20077;-57
2023/03/31 13:11:43;;;;;;;6.05;4.50;;;;;;;;;;4251230;28;20060;-57
2023/03/31 13:14:03;;;;;;;9.40;4.70;;;;;;;;;;4244488;28;20107;-56
2023/03/31 13:16:23;;;;;;;4.90;4.28;;;;;;;;;;4253485;27;20358;-57
2023/03/31 13:18:49;;;;;;;8.10;5.55;;;;;;;;;;4248016;28;20376;-56
2023/03/31 13:21:11;;;;;;;9.90;4.65;;;;;;;;;;4250577;28;20076;-56
2023/03/31 13:23:36;;;;;;;13.00;5.30;;;;;;;;;;4248653;28;20399;-56
2023/03/31 13:25:56;;;;;;;8.55;4.20;;;;;;;;;;4246368;28;20047;-56
2023/03/31 13:28:24;;;;;;;5.45;4.65;;;;;;;;;;4247414;28;20074;-57
2023/03/31 13:30:46;;;;;;;9.00;5.47;;;;;;;;;;4246839;28;20388;-56
2023/03/31 13:33:09;;;;;;;3.63;3.22;;;;;;;;;;4246831;28;20081;-57
2023/03/31 13:35:32;;;;;;;8.50;4.30;;;;;;;;;;4246064;28;20330;-57
2023/03/31 13:38:02;;;;;;;4.65;4.15;;;;;;;;;;4245390;28;20051;-57
2023/03/31 13:40:25;;;;;;;8.43;4.25;;;;;;;;;;4246288;28;20049;-56
2023/03/31 13:43:05;;;;;;;13.93;5.72;;;;;;;;;;4247673;28;20050;-57
2023/03/31 13:45:46;;;;;;;7.05;3.70;;;;;;;;;;4243133;28;20145;-57
2023/03/31 13:48:06;;;;;;;5.38;3.58;;;;;;;;;;4250949;28;20103;-57
2023/03/31 13:50:45;;;;;;;5.45;2.97;;;;;;;;;;4245619;28;20127;-56
2023/03/31 13:53:18;;;;;;;6.05;3.83;;;;;;;;;;4244760;28;20050;-57
2023/03/31 13:55:50;;;;;;;8.33;4.97;;;;;;;;;;4246287;28;20089;-56
2023/03/31 13:58:19;;;;;;;15.53;6.87;;;;;;;;;;4244392;28;20685;-56
2023/03/31 14:01:00;;;;;;;5.70;4.28;;;;;;;;;;4242574;28;20054;-56
2023/03/31 14:03:23;;;;;;;4.32;3.75;;;;;;;;;;4241453;28;20057;-57
2023/03/31 14:06:01;;;;;;;7.80;6.03;;;;;;;;;;4240393;28;20401;-56
2023/03/31 14:08:31;;;;;;;5.90;5.25;;;;;;;;;;4241013;28;20092;-57
2023/03/31 14:10:51;;;;;;;9.52;5.45;;;;;;;;;;4226928;28;20042;-57
2023/03/31 14:13:11;;;;;;;7.03;4.40;;;;;;;;;;4241781;28;20045;-57
2023/03/31 14:15:31;;;;;;;8.35;4.50;;;;;;;;;;4240633;28;20293;-56
2023/03/31 14:17:53;;;;;;;10.30;5.32;;;;;;;;;;4252072;28;20109;-57
2023/03/31 14:20:25;;;;;;;6.25;4.78;;;;;;;;;;4247413;28;20273;-57